Time;durP1;ratioP1;P1;durP2;ratioP2;P2;SDS_P1;SDS_P2;PMS_P1;PMS_P2;Temp;Humidity;BMP_temperature;BMP_pressure;BME280_temperature;BME280_humidity;BME280_pressure;Samples;Min_cycle;Max_cycle;Signal;HPM_P1;HPM_P2
2022/09/06 00:01:55;;;;;;;54.05;7.88;;;;;;;;;;4971970;28;20069;-53
2022/09/06 00:04:22;;;;;;;62.40;7.28;;;;;;;;;;4973606;28;20049;-52
2022/09/06 00:06:49;;;;;;;45.78;6.57;;;;;;;;;;4971361;28;20027;-53
2022/09/06 00:09:16;;;;;;;56.75;7.38;;;;;;;;;;4971643;28;20553;-54
2022/09/06 00:11:43;;;;;;;54.30;7.82;;;;;;;;;;4985334;28;20054;-56
2022/09/06 00:14:10;;;;;;;57.15;6.85;;;;;;;;;;4985590;28;20023;-55
2022/09/06 00:16:39;;;;;;;52.35;8.07;;;;;;;;;;4980642;28;20062;-58
2022/09/06 00:19:06;;;;;;;51.63;7.35;;;;;;;;;;4972248;28;20047;-56
2022/09/06 00:21:34;;;;;;;66.75;13.02;;;;;;;;;;4984396;28;20018;-53
2022/09/06 00:24:02;;;;;;;63.03;13.82;;;;;;;;;;4984942;28;20069;-51
2022/09/06 00:26:32;;;;;;;64.20;14.38;;;;;;;;;;4974083;28;20055;-54
2022/09/06 00:28:59;;;;;;;71.78;15.73;;;;;;;;;;4974021;28;20050;-53
2022/09/06 00:31:27;;;;;;;83.90;19.10;;;;;;;;;;4973823;28;20027;-51
2022/09/06 00:33:58;;;;;;;73.20;17.60;;;;;;;;;;4973643;28;20049;-55
2022/09/06 00:36:25;;;;;;;74.85;17.63;;;;;;;;;;4973796;28;20086;-53
2022/09/06 00:38:52;;;;;;;74.90;18.25;;;;;;;;;;4973644;28;20085;-54
2022/09/06 00:41:19;;;;;;;71.07;18.92;;;;;;;;;;4973796;28;20034;-55
2022/09/06 00:43:46;;;;;;;79.47;20.85;;;;;;;;;;4973423;28;20027;-54
2022/09/06 00:46:21;;;;;;;76.20;20.10;;;;;;;;;;4974040;28;20030;-51
2022/09/06 00:48:49;;;;;;;73.97;19.23;;;;;;;;;;4972402;28;20030;-54
2022/09/06 00:51:17;;;;;;;70.25;18.48;;;;;;;;;;4973516;28;20134;-51
2022/09/06 00:53:44;;;;;;;60.95;19.58;;;;;;;;;;4972388;28;20026;-56
2022/09/06 00:56:11;;;;;;;61.85;18.48;;;;;;;;;;4973654;28;20022;-53
2022/09/06 00:58:38;;;;;;;67.72;18.25;;;;;;;;;;4973635;28;20034;-52
2022/09/06 01:01:06;;;;;;;62.55;17.25;;;;;;;;;;4956616;28;20042;-50
2022/09/06 01:03:34;;;;;;;62.03;16.25;;;;;;;;;;4974026;28;20077;-55
2022/09/06 01:06:12;;;;;;;55.58;16.33;;;;;;;;;;4971153;28;20084;-54
2022/09/06 01:08:59;;;;;;;50.45;16.27;;;;;;;;;;4970727;28;20030;-52
2022/09/06 01:11:26;;;;;;;49.22;15.25;;;;;;;;;;4962363;28;20504;-48
2022/09/06 01:14:00;;;;;;;53.20;15.75;;;;;;;;;;4963599;28;20075;-56
2022/09/06 01:16:43;;;;;;;39.78;14.23;;;;;;;;;;4964285;28;20086;-49
2022/09/06 01:19:22;;;;;;;44.80;13.15;;;;;;;;;;4965104;28;20094;-49
2022/09/06 01:22:07;;;;;;;53.20;13.32;;;;;;;;;;4963998;28;20024;-53
2022/09/06 01:24:59;;;;;;;37.45;12.00;;;;;;;;;;4965336;28;20033;-50
2022/09/06 01:27:45;;;;;;;42.00;13.02;;;;;;;;;;4966902;28;20039;-48
2022/09/06 01:30:13;;;;;;;42.90;12.82;;;;;;;;;;4983632;28;20030;-51
2022/09/06 01:32:49;;;;;;;48.58;12.93;;;;;;;;;;4986547;28;20110;-55
2022/09/06 01:35:16;;;;;;;48.20;11.60;;;;;;;;;;4989544;28;20042;-53
2022/09/06 01:37:43;;;;;;;37.08;10.85;;;;;;;;;;4986827;28;20032;-52
2022/09/06 01:40:10;;;;;;;42.13;11.60;;;;;;;;;;4989414;28;20033;-52
2022/09/06 01:42:38;;;;;;;37.72;10.98;;;;;;;;;;4989445;28;20113;-52
2022/09/06 01:45:08;;;;;;;44.97;11.30;;;;;;;;;;4975338;28;20030;-55
2022/09/06 01:47:53;;;;;;;30.80;9.98;;;;;;;;;;4966192;28;20030;-49
2022/09/06 01:50:34;;;;;;;43.97;10.18;;;;;;;;;;4974614;28;20037;-47
2022/09/06 01:53:04;;;;;;;42.95;9.43;;;;;;;;;;4974886;28;20089;-50
2022/09/06 01:55:37;;;;;;;43.55;9.65;;;;;;;;;;4973665;28;20030;-49
2022/09/06 01:58:22;;;;;;;41.35;9.00;;;;;;;;;;4974762;28;20081;-49
2022/09/06 02:01:02;;;;;;;42.67;8.82;;;;;;;;;;4974694;28;20102;-50
2022/09/06 02:03:32;;;;;;;42.03;8.02;;;;;;;;;;4974423;28;20106;-51
2022/09/06 02:06:10;;;;;;;42.30;8.18;;;;;;;;;;4974458;28;20038;-50
2022/09/06 02:08:46;;;;;;;38.70;7.53;;;;;;;;;;4974466;28;20033;-51
2022/09/06 02:11:14;;;;;;;39.25;7.15;;;;;;;;;;4965769;28;20477;-55
2022/09/06 02:13:48;;;;;;;43.97;7.88;;;;;;;;;;4960521;28;20035;-52
2022/09/06 02:16:18;;;;;;;31.90;7.53;;;;;;;;;;4962612;28;20023;-54
2022/09/06 02:18:51;;;;;;;48.35;7.68;;;;;;;;;;4963139;28;20031;-53
2022/09/06 02:21:20;;;;;;;33.00;6.70;;;;;;;;;;4968169;28;20030;-54
2022/09/06 02:23:47;;;;;;;34.42;6.80;;;;;;;;;;4971928;28;20070;-52
2022/09/06 02:26:18;;;;;;;39.97;6.40;;;;;;;;;;4971554;28;20130;-51
2022/09/06 02:28:45;;;;;;;36.50;6.45;;;;;;;;;;4971542;28;20484;-51
2022/09/06 02:31:18;;;;;;;32.72;6.55;;;;;;;;;;4970099;28;20564;-49
2022/09/06 02:33:46;;;;;;;35.50;6.10;;;;;;;;;;4972930;28;20082;-50
2022/09/06 02:36:14;;;;;;;31.67;6.88;;;;;;;;;;4969668;28;20035;-51
2022/09/06 02:38:42;;;;;;;32.20;6.60;;;;;;;;;;4962666;28;20043;-49
2022/09/06 02:41:09;;;;;;;45.85;6.65;;;;;;;;;;4963712;28;20023;-48
2022/09/06 02:43:36;;;;;;;28.85;5.63;;;;;;;;;;4961412;28;20070;-51
2022/09/06 02:46:03;;;;;;;31.48;5.60;;;;;;;;;;4960039;28;20125;-50
2022/09/06 02:48:30;;;;;;;36.03;6.82;;;;;;;;;;4963179;28;20051;-53
2022/09/06 02:50:57;;;;;;;25.75;5.40;;;;;;;;;;4954892;28;20027;-47
2022/09/06 02:53:24;;;;;;;26.02;5.40;;;;;;;;;;4954678;29;20027;-47
2022/09/06 02:55:51;;;;;;;20.83;4.70;;;;;;;;;;4954686;29;20027;-48
2022/09/06 02:58:18;;;;;;;25.42;4.97;;;;;;;;;;4954670;29;20038;-48
2022/09/06 03:00:45;;;;;;;27.25;5.53;;;;;;;;;;4954328;28;20055;-48
2022/09/06 03:03:12;;;;;;;22.10;4.88;;;;;;;;;;4954388;29;20070;-49
2022/09/06 03:05:39;;;;;;;20.63;5.05;;;;;;;;;;4966566;28;20412;-48
2022/09/06 03:08:06;;;;;;;19.25;5.38;;;;;;;;;;4973740;28;20508;-47
2022/09/06 03:10:33;;;;;;;22.05;5.40;;;;;;;;;;4973711;28;20038;-47
2022/09/06 03:13:00;;;;;;;20.88;4.72;;;;;;;;;;4973839;28;20038;-47
2022/09/06 03:15:27;;;;;;;19.00;5.10;;;;;;;;;;4973678;28;20034;-48
2022/09/06 03:17:57;;;;;;;17.75;4.93;;;;;;;;;;4973622;28;20034;-48
2022/09/06 03:20:25;;;;;;;23.33;4.88;;;;;;;;;;4968065;28;20100;-47
2022/09/06 03:22:52;;;;;;;18.17;4.60;;;;;;;;;;4954466;29;20389;-48
2022/09/06 03:25:19;;;;;;;18.70;4.65;;;;;;;;;;4954471;29;20033;-48
2022/09/06 03:27:46;;;;;;;21.27;5.13;;;;;;;;;;4954339;29;20496;-47
2022/09/06 03:30:13;;;;;;;23.30;5.00;;;;;;;;;;4954248;29;20051;-47
2022/09/06 03:32:40;;;;;;;17.75;4.50;;;;;;;;;;4954283;29;20036;-47
2022/09/06 03:35:08;;;;;;;13.25;4.03;;;;;;;;;;4960358;28;20037;-47
2022/09/06 03:37:35;;;;;;;21.40;4.88;;;;;;;;;;4961635;28;20057;-47
2022/09/06 03:40:02;;;;;;;15.20;4.32;;;;;;;;;;4956282;28;20019;-47
2022/09/06 03:42:29;;;;;;;10.23;3.72;;;;;;;;;;4969674;28;20034;-49
2022/09/06 03:44:56;;;;;;;17.50;4.43;;;;;;;;;;4961472;28;20031;-48
2022/09/06 03:47:23;;;;;;;20.30;4.15;;;;;;;;;;4958571;28;20082;-47
2022/09/06 03:49:50;;;;;;;12.68;3.90;;;;;;;;;;4962567;28;20027;-48
2022/09/06 03:52:17;;;;;;;16.30;4.45;;;;;;;;;;4971993;28;20035;-52
2022/09/06 03:54:44;;;;;;;14.40;4.40;;;;;;;;;;4969693;28;20034;-50
2022/09/06 03:57:11;;;;;;;17.48;4.50;;;;;;;;;;4976929;28;20074;-48
2022/09/06 03:59:38;;;;;;;13.90;4.20;;;;;;;;;;4976595;28;20051;-49
2022/09/06 04:02:06;;;;;;;16.50;3.92;;;;;;;;;;4976927;28;20176;-49
2022/09/06 04:04:33;;;;;;;17.33;3.75;;;;;;;;;;4976708;28;20413;-49
2022/09/06 04:07:00;;;;;;;12.88;3.72;;;;;;;;;;4976976;28;20023;-49
2022/09/06 04:09:27;;;;;;;17.23;3.85;;;;;;;;;;4976768;28;20122;-49
2022/09/06 04:11:54;;;;;;;13.30;4.00;;;;;;;;;;4975613;28;20381;-49
2022/09/06 04:14:21;;;;;;;12.25;3.95;;;;;;;;;;4976813;28;20041;-49
2022/09/06 04:16:48;;;;;;;11.40;3.65;;;;;;;;;;4976724;28;20458;-49
2022/09/06 04:19:15;;;;;;;11.52;3.50;;;;;;;;;;4976574;28;20057;-50
2022/09/06 04:21:42;;;;;;;10.27;3.70;;;;;;;;;;4976568;28;20541;-49
2022/09/06 04:24:09;;;;;;;10.25;3.28;;;;;;;;;;4976431;28;20033;-49
2022/09/06 04:26:36;;;;;;;12.65;3.85;;;;;;;;;;4976643;28;20078;-49
2022/09/06 04:29:03;;;;;;;14.85;3.40;;;;;;;;;;4975077;28;20038;-48
2022/09/06 04:31:30;;;;;;;8.10;3.33;;;;;;;;;;4976457;28;20037;-48
2022/09/06 04:33:57;;;;;;;14.52;3.72;;;;;;;;;;4976431;28;20122;-49
2022/09/06 04:36:24;;;;;;;14.60;3.58;;;;;;;;;;4976206;28;20642;-47
2022/09/06 04:38:51;;;;;;;10.48;3.38;;;;;;;;;;4976314;28;20027;-48
2022/09/06 04:41:18;;;;;;;10.30;3.22;;;;;;;;;;4976088;28;20035;-48
2022/09/06 04:43:45;;;;;;;13.07;3.58;;;;;;;;;;4976218;28;20105;-47
2022/09/06 04:46:17;;;;;;;8.35;3.10;;;;;;;;;;4974949;28;20030;-48
2022/09/06 04:48:44;;;;;;;;;;;;;;;;;;4976732;28;20035;-47
2022/09/06 04:51:11;;;;;;;9.93;3.42;;;;;;;;;;4975942;28;19943;-49
2022/09/06 04:53:38;;;;;;;7.80;3.25;;;;;;;;;;4976137;28;20054;-48
2022/09/06 04:56:05;;;;;;;8.82;3.03;;;;;;;;;;4976112;28;20022;-47
2022/09/06 04:58:32;;;;;;;9.00;2.90;;;;;;;;;;4975839;28;20042;-48
2022/09/06 05:00:59;;;;;;;8.95;3.38;;;;;;;;;;4975891;28;20033;-49
2022/09/06 05:03:26;;;;;;;8.32;3.30;;;;;;;;;;4974316;28;20051;-49
2022/09/06 05:05:53;;;;;;;9.73;3.60;;;;;;;;;;4975877;28;20492;-49
2022/09/06 05:08:19;;;;;;;8.93;3.15;;;;;;;;;;4975781;28;20030;-48
2022/09/06 05:10:46;;;;;;;7.43;2.60;;;;;;;;;;4975676;28;20031;-49
2022/09/06 05:13:13;;;;;;;7.53;3.30;;;;;;;;;;4975473;28;20031;-48
2022/09/06 05:15:40;;;;;;;9.02;3.20;;;;;;;;;;4975734;28;20027;-49
2022/09/06 05:18:07;;;;;;;8.63;2.88;;;;;;;;;;4975620;28;20031;-49
2022/09/06 05:20:35;;;;;;;7.30;2.90;;;;;;;;;;4974464;28;20484;-50
2022/09/06 05:23:02;;;;;;;6.28;3.03;;;;;;;;;;4975497;28;20405;-49
2022/09/06 05:25:29;;;;;;;9.90;3.17;;;;;;;;;;4975466;28;20101;-50
2022/09/06 05:27:56;;;;;;;9.45;3.25;;;;;;;;;;4974117;28;20058;-50
2022/09/06 05:30:23;;;;;;;10.20;3.53;;;;;;;;;;4974258;28;20401;-49
2022/09/06 05:32:50;;;;;;;8.80;3.10;;;;;;;;;;4974312;28;20038;-49
2022/09/06 05:35:17;;;;;;;9.48;3.20;;;;;;;;;;4974418;28;20485;-47
2022/09/06 05:37:44;;;;;;;9.50;2.72;;;;;;;;;;4972996;28;20057;-50
2022/09/06 05:40:11;;;;;;;11.65;3.17;;;;;;;;;;4974345;28;20078;-50
2022/09/06 05:42:39;;;;;;;9.25;2.88;;;;;;;;;;4974292;28;20057;-49
2022/09/06 05:45:07;;;;;;;14.88;3.22;;;;;;;;;;4973977;28;20394;-49
2022/09/06 05:47:34;;;;;;;9.63;2.90;;;;;;;;;;4974101;28;20046;-49
2022/09/06 05:50:05;;;;;;;10.73;3.08;;;;;;;;;;4973633;28;20034;-49
2022/09/06 05:52:33;;;;;;;8.90;3.30;;;;;;;;;;4972006;28;20041;-49
2022/09/06 05:55:01;;;;;;;9.02;2.90;;;;;;;;;;4974359;28;20039;-49
2022/09/06 05:57:28;;;;;;;7.93;2.83;;;;;;;;;;4974936;28;20058;-48
2022/09/06 05:59:55;;;;;;;6.53;2.90;;;;;;;;;;4973585;28;20027;-49
2022/09/06 06:02:22;;;;;;;9.70;2.90;;;;;;;;;;4965359;28;20039;-50
2022/09/06 06:04:50;;;;;;;9.07;2.78;;;;;;;;;;4955128;29;20043;-49
2022/09/06 06:07:18;;;;;;;8.88;3.28;;;;;;;;;;4954761;29;20035;-50
2022/09/06 06:09:45;;;;;;;6.28;2.75;;;;;;;;;;4955307;29;20034;-50
2022/09/06 06:12:12;;;;;;;8.77;3.38;;;;;;;;;;4955170;29;20086;-50
2022/09/06 06:14:39;;;;;;;8.55;2.80;;;;;;;;;;4955042;28;20058;-50
2022/09/06 06:17:06;;;;;;;9.15;3.10;;;;;;;;;;4954823;29;20027;-51
2022/09/06 06:19:32;;;;;;;7.38;2.40;;;;;;;;;;4954139;28;20051;-48
2022/09/06 06:22:00;;;;;;;6.90;2.95;;;;;;;;;;4955024;29;20031;-47
2022/09/06 06:24:27;;;;;;;7.75;2.60;;;;;;;;;;4954974;29;20027;-47
2022/09/06 06:26:54;;;;;;;7.40;2.67;;;;;;;;;;4955087;29;20726;-48
2022/09/06 06:29:21;;;;;;;6.50;2.60;;;;;;;;;;4954893;29;20055;-51
2022/09/06 06:31:48;;;;;;;7.25;2.50;;;;;;;;;;4954946;29;20040;-50
2022/09/06 06:34:15;;;;;;;9.52;2.70;;;;;;;;;;4954475;29;20110;-48
2022/09/06 06:36:43;;;;;;;8.52;2.80;;;;;;;;;;4954837;29;20035;-49
2022/09/06 06:39:10;;;;;;;11.18;2.80;;;;;;;;;;4954861;29;20122;-47
2022/09/06 06:41:37;;;;;;;7.03;2.58;;;;;;;;;;4954787;29;20504;-48
2022/09/06 06:44:04;;;;;;;7.38;2.55;;;;;;;;;;4954727;29;20086;-49
2022/09/06 06:46:33;;;;;;;6.05;2.70;;;;;;;;;;4954852;29;20078;-49
2022/09/06 06:49:00;;;;;;;7.28;2.97;;;;;;;;;;4956586;28;20444;-50
2022/09/06 06:51:28;;;;;;;5.60;2.70;;;;;;;;;;4974016;28;20038;-50
2022/09/06 06:53:55;;;;;;;6.47;2.38;;;;;;;;;;4974147;28;20034;-50
2022/09/06 06:56:23;;;;;;;6.35;2.65;;;;;;;;;;4973966;28;20034;-50
2022/09/06 06:58:51;;;;;;;7.13;2.63;;;;;;;;;;4973904;28;20031;-49
2022/09/06 07:01:19;;;;;;;7.32;2.38;;;;;;;;;;4973875;28;20461;-49
2022/09/06 07:03:46;;;;;;;5.82;2.60;;;;;;;;;;4973727;28;20046;-50
2022/09/06 07:06:18;;;;;;;6.40;2.53;;;;;;;;;;4973709;28;20396;-53
2022/09/06 07:08:47;;;;;;;7.10;2.70;;;;;;;;;;4973944;28;20038;-54
2022/09/06 07:11:19;;;;;;;7.25;2.67;;;;;;;;;;4973635;28;20274;-53
2022/09/06 07:13:46;;;;;;;8.07;2.45;;;;;;;;;;4973632;28;20422;-50
2022/09/06 07:16:14;;;;;;;5.38;2.63;;;;;;;;;;4973761;28;20469;-49
2022/09/06 07:18:41;;;;;;;7.68;2.70;;;;;;;;;;4973626;28;20089;-50
2022/09/06 07:21:15;;;;;;;6.18;2.65;;;;;;;;;;4972942;28;20432;-48
2022/09/06 07:23:43;;;;;;;5.57;2.40;;;;;;;;;;4973704;28;20027;-50
2022/09/06 07:26:29;;;;;;;7.43;2.42;;;;;;;;;;4973484;28;20038;-49
2022/09/06 07:29:01;;;;;;;7.25;2.30;;;;;;;;;;4977672;28;20045;-48
2022/09/06 07:31:28;;;;;;;8.35;2.72;;;;;;;;;;4977547;28;20042;-49
2022/09/06 07:33:55;;;;;;;7.55;2.60;;;;;;;;;;4977637;28;20776;-49
2022/09/06 07:36:22;;;;;;;6.05;2.38;;;;;;;;;;4977527;28;20030;-48
2022/09/06 07:38:50;;;;;;;8.10;2.38;;;;;;;;;;4976167;28;20465;-47
2022/09/06 07:41:18;;;;;;;8.05;2.45;;;;;;;;;;4977359;28;20031;-48
2022/09/06 07:43:45;;;;;;;6.10;2.17;;;;;;;;;;4977526;28;20054;-49
2022/09/06 07:46:16;;;;;;;5.43;2.78;;;;;;;;;;4977365;28;20054;-49
2022/09/06 07:48:44;;;;;;;9.60;2.38;;;;;;;;;;4977194;28;20031;-48
2022/09/06 07:51:12;;;;;;;5.15;2.40;;;;;;;;;;4977247;28;20038;-49
2022/09/06 07:53:40;;;;;;;3.70;2.20;;;;;;;;;;4976994;28;20062;-49
2022/09/06 07:56:08;;;;;;;8.38;2.65;;;;;;;;;;4960691;28;20061;-48
2022/09/06 07:58:36;;;;;;;5.60;2.63;;;;;;;;;;4963791;28;20556;-50
2022/09/06 08:01:21;;;;;;;9.65;2.75;;;;;;;;;;4976948;28;20106;-50
2022/09/06 08:03:48;;;;;;;7.93;2.40;;;;;;;;;;4976948;28;20035;-50
2022/09/06 08:06:15;;;;;;;5.53;2.47;;;;;;;;;;4977022;28;20058;-50
2022/09/06 08:08:42;;;;;;;5.05;2.47;;;;;;;;;;4976946;28;20424;-49
2022/09/06 08:11:09;;;;;;;7.20;2.65;;;;;;;;;;4976873;28;20038;-49
2022/09/06 08:13:37;;;;;;;4.95;2.42;;;;;;;;;;4975688;28;20456;-48
2022/09/06 08:16:08;;;;;;;6.88;2.08;;;;;;;;;;4976756;28;20481;-47
2022/09/06 08:18:36;;;;;;;8.30;2.70;;;;;;;;;;4976809;28;20030;-48
2022/09/06 08:21:07;;;;;;;9.32;2.75;;;;;;;;;;4976710;28;20019;-49
2022/09/06 08:23:34;;;;;;;5.82;2.22;;;;;;;;;;4976747;28;20058;-49
2022/09/06 08:26:01;;;;;;;5.70;2.40;;;;;;;;;;4976704;28;20026;-49
2022/09/06 08:28:28;;;;;;;8.35;2.50;;;;;;;;;;4976469;28;20066;-49
2022/09/06 08:30:56;;;;;;;8.00;2.90;;;;;;;;;;4976441;28;20059;-49
2022/09/06 08:33:24;;;;;;;5.45;2.20;;;;;;;;;;4975263;28;20066;-49
2022/09/06 08:35:55;;;;;;;4.85;2.17;;;;;;;;;;4976324;28;20501;-49
2022/09/06 08:38:22;;;;;;;6.15;2.40;;;;;;;;;;4975653;28;20042;-49
2022/09/06 08:40:50;;;;;;;4.72;2.08;;;;;;;;;;4976106;28;20121;-50
2022/09/06 08:43:18;;;;;;;5.45;2.58;;;;;;;;;;4976436;28;20027;-51
2022/09/06 08:45:53;;;;;;;6.28;2.22;;;;;;;;;;4976266;28;20050;-49
2022/09/06 08:48:20;;;;;;;3.45;2.08;;;;;;;;;;4976049;28;20031;-50
2022/09/06 08:50:57;;;;;;;8.65;2.53;;;;;;;;;;4974964;28;20039;-50
2022/09/06 08:53:24;;;;;;;4.63;2.15;;;;;;;;;;4976049;28;20035;-50
2022/09/06 08:55:54;;;;;;;5.20;2.42;;;;;;;;;;4976155;28;20027;-49
2022/09/06 08:58:25;;;;;;;7.22;2.45;;;;;;;;;;4976254;28;20041;-49
2022/09/06 09:00:57;;;;;;;5.30;2.47;;;;;;;;;;4976135;28;20038;-49
2022/09/06 09:03:26;;;;;;;4.30;2.42;;;;;;;;;;4975641;28;20055;-50
2022/09/06 09:05:54;;;;;;;3.90;2.05;;;;;;;;;;4974534;28;20547;-50
2022/09/06 09:08:33;;;;;;;5.38;2.08;;;;;;;;;;4975856;28;20054;-50
2022/09/06 09:11:04;;;;;;;4.90;2.15;;;;;;;;;;4975751;28;20026;-50
2022/09/06 09:13:31;;;;;;;5.03;2.60;;;;;;;;;;4975720;28;20037;-49
2022/09/06 09:15:58;;;;;;;5.32;2.20;;;;;;;;;;4975588;28;20085;-49
2022/09/06 09:18:28;;;;;;;7.43;2.42;;;;;;;;;;4975751;28;20527;-50
2022/09/06 09:20:55;;;;;;;6.25;2.38;;;;;;;;;;4974561;28;20485;-50
2022/09/06 09:23:22;;;;;;;4.15;2.10;;;;;;;;;;4975583;28;20065;-48
2022/09/06 09:25:51;;;;;;;5.05;2.25;;;;;;;;;;4975761;28;20404;-48
2022/09/06 09:28:20;;;;;;;5.38;2.25;;;;;;;;;;4975131;28;20113;-48
2022/09/06 09:30:56;;;;;;;5.55;2.60;;;;;;;;;;4958202;28;20090;-50
2022/09/06 09:33:32;;;;;;;6.68;2.28;;;;;;;;;;4975375;28;20035;-48
2022/09/06 09:36:05;;;;;;;3.67;2.17;;;;;;;;;;4975329;28;20516;-49
2022/09/06 09:38:40;;;;;;;7.70;2.30;;;;;;;;;;4969372;28;20027;-50
2022/09/06 09:41:08;;;;;;;4.32;2.30;;;;;;;;;;4962227;28;20106;-48
2022/09/06 09:43:40;;;;;;;4.80;2.03;;;;;;;;;;4974841;28;20033;-51
2022/09/06 09:46:09;;;;;;;9.32;2.25;;;;;;;;;;4975109;28;20030;-48
2022/09/06 09:48:36;;;;;;;4.70;2.20;;;;;;;;;;4975012;28;20485;-51
2022/09/06 09:51:23;;;;;;;6.88;2.50;;;;;;;;;;4973824;28;20393;-48
2022/09/06 09:53:51;;;;;;;6.75;2.22;;;;;;;;;;4974990;28;20031;-49
2022/09/06 09:56:28;;;;;;;9.07;2.38;;;;;;;;;;4973801;28;20027;-51
2022/09/06 09:58:56;;;;;;;9.60;2.40;;;;;;;;;;4957989;28;20428;-53
2022/09/06 10:01:27;;;;;;;6.45;2.50;;;;;;;;;;4974656;28;20110;-54
2022/09/06 10:04:00;;;;;;;6.07;2.47;;;;;;;;;;4974022;28;20141;-52
2022/09/06 10:06:29;;;;;;;10.82;2.75;;;;;;;;;;4972011;28;20591;-51
2022/09/06 10:09:00;;;;;;;5.80;2.70;;;;;;;;;;4974585;28;20485;-53
2022/09/06 10:11:41;;;;;;;9.05;2.60;;;;;;;;;;4973943;28;20031;-49
2022/09/06 10:14:12;;;;;;;7.20;2.75;;;;;;;;;;4955207;29;20126;-50
2022/09/06 10:16:45;;;;;;;8.73;2.70;;;;;;;;;;4955172;29;20099;-49
2022/09/06 10:19:36;;;;;;;11.73;2.90;;;;;;;;;;4963626;28;20389;-51
2022/09/06 10:22:27;;;;;;;8.50;2.80;;;;;;;;;;4962015;28;20034;-49
2022/09/06 10:25:07;;;;;;;12.32;2.90;;;;;;;;;;4952000;28;20528;-51
2022/09/06 10:27:34;;;;;;;8.13;3.20;;;;;;;;;;4964322;28;20039;-50
2022/09/06 10:30:06;;;;;;;12.88;3.35;;;;;;;;;;4964388;28;20034;-50
2022/09/06 10:32:33;;;;;;;9.45;2.95;;;;;;;;;;4964043;28;20035;-51
2022/09/06 10:35:17;;;;;;;9.40;2.65;;;;;;;;;;4965358;28;20086;-52
2022/09/06 10:37:47;;;;;;;14.45;3.30;;;;;;;;;;4971779;28;20023;-54
2022/09/06 10:40:34;;;;;;;15.38;3.95;;;;;;;;;;4973244;28;20022;-53
2022/09/06 10:43:03;;;;;;;13.38;3.67;;;;;;;;;;4973079;28;20058;-51
2022/09/06 10:45:30;;;;;;;21.20;4.47;;;;;;;;;;4971597;28;20042;-54
2022/09/06 10:47:57;;;;;;;25.60;4.63;;;;;;;;;;4972816;28;20034;-51
2022/09/06 10:50:44;;;;;;;23.63;5.53;;;;;;;;;;4973149;28;20030;-53
2022/09/06 10:53:16;;;;;;;24.30;5.70;;;;;;;;;;4973046;28;20038;-54
2022/09/06 10:55:46;;;;;;;29.05;7.30;;;;;;;;;;4973211;28;20031;-55
2022/09/06 10:58:13;;;;;;;34.30;7.32;;;;;;;;;;4973143;28;20023;-54
2022/09/06 11:00:47;;;;;;;31.40;8.88;;;;;;;;;;4973149;28;20030;-53
2022/09/06 11:03:18;;;;;;;34.45;9.40;;;;;;;;;;4971203;28;20541;-51
2022/09/06 11:05:57;;;;;;;41.60;9.00;;;;;;;;;;4972969;28;20101;-56
2022/09/06 11:08:43;;;;;;;44.42;9.27;;;;;;;;;;4972928;28;20038;-52
2022/09/06 11:11:18;;;;;;;39.20;10.13;;;;;;;;;;4955344;28;20409;-51
2022/09/06 11:13:46;;;;;;;35.58;8.38;;;;;;;;;;4972988;28;20025;-52
2022/09/06 11:16:16;;;;;;;36.13;9.18;;;;;;;;;;4972818;28;20062;-55
2022/09/06 11:19:18;;;;;;;39.60;9.18;;;;;;;;;;4971476;28;20039;-51
2022/09/06 11:22:08;;;;;;;45.67;9.50;;;;;;;;;;4897018;29;20475;-56
2022/09/06 11:24:38;;;;;;;42.40;9.15;;;;;;;;;;4969968;28;20039;-57
2022/09/06 11:27:11;;;;;;;34.30;8.48;;;;;;;;;;4972256;28;20461;-54
2022/09/06 11:29:42;;;;;;;39.00;8.73;;;;;;;;;;4972529;28;20031;-57
2022/09/06 11:32:29;;;;;;;27.33;7.57;;;;;;;;;;4982556;28;20034;-58
2022/09/06 11:34:57;;;;;;;37.03;7.68;;;;;;;;;;4977188;28;20545;-53
2022/09/06 11:37:35;;;;;;;22.98;6.53;;;;;;;;;;4978630;28;20377;-57
2022/09/06 11:40:13;;;;;;;34.05;8.07;;;;;;;;;;4973401;28;20031;-59
2022/09/06 11:42:40;;;;;;;35.85;6.00;;;;;;;;;;4973235;28;20027;-59
2022/09/06 11:45:10;;;;;;;26.38;6.32;;;;;;;;;;4973372;28;20027;-59
2022/09/06 11:47:45;;;;;;;29.02;6.90;;;;;;;;;;4973472;28;20085;-57
2022/09/06 11:50:27;;;;;;;33.42;6.68;;;;;;;;;;4971479;28;20061;-60
2022/09/06 11:53:11;;;;;;;30.15;7.07;;;;;;;;;;4969853;28;20397;-58
2022/09/06 11:55:46;;;;;;;27.58;6.95;;;;;;;;;;4967972;28;20042;-54
2022/09/06 11:58:19;;;;;;;31.98;7.05;;;;;;;;;;4973271;28;20559;-56
2022/09/06 12:00:47;;;;;;;24.23;6.30;;;;;;;;;;4972801;28;20055;-56
2022/09/06 12:03:32;;;;;;;26.30;6.15;;;;;;;;;;4971744;28;20416;-54
2022/09/06 12:06:14;;;;;;;28.45;6.68;;;;;;;;;;4973030;28;20097;-54
2022/09/06 12:08:42;;;;;;;32.63;6.35;;;;;;;;;;4973372;28;20396;-53
2022/09/06 12:11:27;;;;;;;25.42;5.93;;;;;;;;;;4971767;28;20041;-55
2022/09/06 12:13:58;;;;;;;21.52;6.47;;;;;;;;;;4973871;28;20026;-52
2022/09/06 12:16:45;;;;;;;24.17;6.18;;;;;;;;;;4976469;28;20055;-52
2022/09/06 12:19:32;;;;;;;25.85;6.03;;;;;;;;;;4976486;28;20153;-53
2022/09/06 12:21:59;;;;;;;36.80;6.88;;;;;;;;;;4976529;28;20484;-56
2022/09/06 12:24:35;;;;;;;23.17;6.60;;;;;;;;;;4976561;28;20038;-56
2022/09/06 12:27:28;;;;;;;30.00;6.80;;;;;;;;;;4976579;28;20081;-56
2022/09/06 12:30:03;;;;;;;30.48;6.75;;;;;;;;;;4967580;28;20079;-57
2022/09/06 12:32:37;;;;;;;37.40;7.30;;;;;;;;;;4966579;28;20031;-50
2022/09/06 12:35:05;;;;;;;24.80;6.57;;;;;;;;;;4976296;28;20047;-53
2022/09/06 12:37:36;;;;;;;27.70;7.30;;;;;;;;;;4975981;28;20560;-57
2022/09/06 12:40:06;;;;;;;25.92;6.95;;;;;;;;;;4975977;28;20367;-58
2022/09/06 12:42:35;;;;;;;31.67;7.03;;;;;;;;;;4976186;28;20113;-56
2022/09/06 12:45:03;;;;;;;34.22;7.13;;;;;;;;;;4976035;28;20038;-51
2022/09/06 12:47:32;;;;;;;31.88;6.97;;;;;;;;;;4975739;28;20063;-54
2022/09/06 12:50:08;;;;;;;38.40;6.65;;;;;;;;;;4975848;28;20081;-55
2022/09/06 12:52:43;;;;;;;35.95;7.45;;;;;;;;;;4975864;28;20105;-50
2022/09/06 12:55:26;;;;;;;34.30;7.18;;;;;;;;;;4975873;28;20038;-52
2022/09/06 12:57:56;;;;;;;31.90;7.38;;;;;;;;;;4975882;28;20039;-52
2022/09/06 13:00:25;;;;;;;30.40;6.78;;;;;;;;;;4975793;28;20027;-54
2022/09/06 13:03:04;;;;;;;36.15;6.88;;;;;;;;;;4975744;28;20026;-54
2022/09/06 13:05:31;;;;;;;29.65;6.88;;;;;;;;;;4975785;28;20069;-55
2022/09/06 13:08:00;;;;;;;33.63;6.80;;;;;;;;;;4975697;28;20497;-56
2022/09/06 13:10:28;;;;;;;34.35;8.18;;;;;;;;;;4975526;28;20436;-56
2022/09/06 13:12:57;;;;;;;32.80;6.65;;;;;;;;;;4975170;28;20416;-56
2022/09/06 13:15:26;;;;;;;30.92;7.30;;;;;;;;;;4958099;28;20034;-55
2022/09/06 13:17:53;;;;;;;45.22;7.65;;;;;;;;;;4957987;28;20389;-55
2022/09/06 13:20:28;;;;;;;45.47;7.15;;;;;;;;;;4975538;28;20030;-59
2022/09/06 13:23:18;;;;;;;43.83;7.40;;;;;;;;;;4975584;28;20078;-58
2022/09/06 13:25:49;;;;;;;30.23;6.57;;;;;;;;;;4959156;28;20109;-59
2022/09/06 13:28:32;;;;;;;31.30;6.88;;;;;;;;;;4956078;29;20035;-56
2022/09/06 13:31:04;;;;;;;34.17;6.57;;;;;;;;;;4955687;29;20090;-57
2022/09/06 13:33:31;;;;;;;31.10;6.60;;;;;;;;;;4955920;29;20035;-59
2022/09/06 13:36:09;;;;;;;31.08;7.07;;;;;;;;;;4961096;28;20545;-57
2022/09/06 13:38:39;;;;;;;30.58;7.55;;;;;;;;;;4974490;28;20049;-58
2022/09/06 13:41:26;;;;;;;34.15;7.22;;;;;;;;;;4974950;28;20050;-57
2022/09/06 13:44:02;;;;;;;34.17;6.68;;;;;;;;;;4974890;28;20371;-62
2022/09/06 13:46:29;;;;;;;36.88;6.93;;;;;;;;;;4974969;28;20038;-61
2022/09/06 13:48:56;;;;;;;31.33;5.93;;;;;;;;;;4974749;28;20035;-60
2022/09/06 13:51:25;;;;;;;31.83;4.95;;;;;;;;;;4977361;28;20065;-61
2022/09/06 13:54:02;;;;;;;25.55;5.10;;;;;;;;;;4984202;28;20073;-61
2022/09/06 13:56:29;;;;;;;32.50;4.70;;;;;;;;;;4974265;28;20110;-58
2022/09/06 13:58:56;;;;;;;22.80;4.30;;;;;;;;;;4983741;28;20042;-58
2022/09/06 14:01:23;;;;;;;19.90;4.55;;;;;;;;;;4974655;28;20074;-58
2022/09/06 14:03:51;;;;;;;22.17;4.38;;;;;;;;;;4966183;28;20828;-53
2022/09/06 14:06:18;;;;;;;23.52;4.65;;;;;;;;;;4955169;29;20090;-53
2022/09/06 14:08:45;;;;;;;24.48;4.30;;;;;;;;;;4954802;29;20119;-56
2022/09/06 14:11:12;;;;;;;29.02;3.85;;;;;;;;;;4955314;29;20038;-51
2022/09/06 14:13:39;;;;;;;24.63;3.95;;;;;;;;;;4955225;29;20023;-60
2022/09/06 14:16:06;;;;;;;19.65;5.28;;;;;;;;;;4955357;29;20066;-56
2022/09/06 14:18:33;;;;;;;26.00;5.38;;;;;;;;;;4955127;29;20036;-57
2022/09/06 14:21:00;;;;;;;36.75;5.80;;;;;;;;;;4954743;29;20027;-56
2022/09/06 14:23:27;;;;;;;27.52;5.20;;;;;;;;;;4955137;29;20031;-58
2022/09/06 14:25:58;;;;;;;36.70;5.63;;;;;;;;;;4955068;29;20027;-61
2022/09/06 14:28:26;;;;;;;39.05;5.18;;;;;;;;;;4955011;29;20082;-49
2022/09/06 14:30:53;;;;;;;37.63;5.70;;;;;;;;;;4954651;29;20122;-52
2022/09/06 14:33:20;;;;;;;44.75;5.03;;;;;;;;;;4954941;29;20106;-49
2022/09/06 14:35:47;;;;;;;37.92;4.85;;;;;;;;;;4954803;28;20027;-49
2022/09/06 14:38:15;;;;;;;30.45;5.70;;;;;;;;;;4954799;29;20086;-52
2022/09/06 14:40:44;;;;;;;33.95;5.40;;;;;;;;;;4954761;29;20031;-51
2022/09/06 14:43:11;;;;;;;39.20;4.88;;;;;;;;;;4977416;28;20022;-51
2022/09/06 14:45:38;;;;;;;26.30;4.90;;;;;;;;;;4986619;28;20503;-55
2022/09/06 14:48:05;;;;;;;39.45;5.65;;;;;;;;;;4984267;28;20034;-52
2022/09/06 14:50:33;;;;;;;30.70;5.18;;;;;;;;;;4974549;28;20109;-57
2022/09/06 14:53:00;;;;;;;35.45;5.47;;;;;;;;;;4982250;28;20104;-51